createdAt,value
2019-02-17T00:00:22.786Z,1018.94
2019-02-17T00:01:22.077Z,1018.94
2019-02-17T00:02:22.414Z,1018.97
2019-02-17T00:03:22.104Z,1018.97
2019-02-17T00:04:22.471Z,1018.95
2019-02-17T00:05:22.166Z,1018.95
2019-02-17T00:06:22.437Z,1018.94
2019-02-17T00:07:22.026Z,1018.93
2019-02-17T00:08:22.079Z,1019.00
2019-02-17T00:09:22.017Z,1018.96
2019-02-17T00:10:22.415Z,1018.94
2019-02-17T00:11:22.317Z,1018.97
2019-02-17T00:12:22.306Z,1018.96
2019-02-17T00:13:29.644Z,1018.98
2019-02-17T00:14:24.023Z,1018.96
2019-02-17T00:15:22.269Z,1018.93
2019-02-17T00:16:21.946Z,1018.92
2019-02-17T00:17:21.902Z,1018.93
2019-02-17T00:18:23.267Z,1018.92
2019-02-17T00:19:21.867Z,1018.93
2019-02-17T00:20:21.933Z,1018.89
2019-02-17T00:21:22.247Z,1018.87
2019-02-17T00:22:22.348Z,1018.88
2019-02-17T00:23:21.914Z,1018.83
2019-02-17T00:24:22.078Z,1018.83
2019-02-17T00:25:22.766Z,1018.87
2019-02-17T00:26:21.800Z,1018.84
2019-02-17T00:27:21.847Z,1018.84
2019-02-17T00:28:21.802Z,1018.81
2019-02-17T00:29:21.790Z,1018.79
2019-02-17T00:30:21.767Z,1018.80
2019-02-17T00:31:22.568Z,1018.80
2019-02-17T00:32:21.760Z,1018.76
2019-02-17T00:33:21.998Z,1018.75
2019-02-17T00:34:21.854Z,1018.78
2019-02-17T00:35:22.275Z,1018.78
2019-02-17T00:36:21.690Z,1018.78
2019-02-17T00:37:21.707Z,1018.78
2019-02-17T00:38:21.727Z,1018.76
2019-02-17T00:39:21.657Z,1018.80
2019-02-17T00:40:21.673Z,1018.77
2019-02-17T00:41:21.635Z,1018.77
2019-02-17T00:42:21.629Z,1018.77
2019-02-17T00:43:21.629Z,1018.77
2019-02-17T00:44:21.603Z,1018.78
2019-02-17T00:45:21.624Z,1018.74
2019-02-17T00:46:21.584Z,1018.77
2019-02-17T00:47:21.635Z,1018.76
2019-02-17T00:48:21.561Z,1018.77
2019-02-17T00:49:21.584Z,1018.75
2019-02-17T00:50:21.584Z,1018.72
2019-02-17T00:51:21.535Z,1018.72
2019-02-17T00:52:21.535Z,1018.68
2019-02-17T00:53:21.506Z,1018.68
2019-02-17T00:54:21.568Z,1018.70
2019-02-17T00:55:21.498Z,1018.70
2019-02-17T00:56:21.545Z,1018.75
2019-02-17T00:57:21.507Z,1018.66
2019-02-17T00:58:21.500Z,1018.70
2019-02-17T00:59:21.459Z,1018.66
2019-02-17T01:00:21.458Z,1018.69
2019-02-17T01:01:21.454Z,1018.70
2019-02-17T01:02:21.426Z,1018.68
2019-02-17T01:03:21.410Z,1018.65
2019-02-17T01:04:21.461Z,1018.70
2019-02-17T01:05:21.382Z,1018.65
2019-02-17T01:06:21.424Z,1018.64
2019-02-17T01:07:21.362Z,1018.62
2019-02-17T01:08:21.355Z,1018.64
2019-02-17T01:09:21.358Z,1018.65
2019-02-17T01:10:21.330Z,1018.65
2019-02-17T01:11:21.333Z,1018.60
2019-02-17T01:12:21.393Z,1018.60
2019-02-17T01:13:21.298Z,1018.58
2019-02-17T01:14:21.292Z,1018.58
2019-02-17T01:15:21.294Z,1018.57
2019-02-17T01:16:21.286Z,1018.58
2019-02-17T01:17:21.309Z,1018.59
2019-02-17T01:18:21.281Z,1018.58
2019-02-17T01:19:21.281Z,1018.57
2019-02-17T01:20:21.231Z,1018.60
2019-02-17T01:21:21.224Z,1018.54
2019-02-17T01:22:21.222Z,1018.56
2019-02-17T01:23:21.221Z,1018.59
2019-02-17T01:24:21.200Z,1018.61
2019-02-17T01:25:21.229Z,1018.66
2019-02-17T01:26:21.177Z,1018.60
2019-02-17T01:27:21.171Z,1018.64
2019-02-17T01:28:21.176Z,1018.59
2019-02-17T01:29:21.130Z,1018.59
2019-02-17T01:30:21.168Z,1018.58
2019-02-17T01:31:21.109Z,1018.57
2019-02-17T01:32:21.099Z,1018.55
2019-02-17T01:33:21.150Z,1018.55
2019-02-17T01:34:21.101Z,1018.50
2019-02-17T01:35:21.073Z,1018.53
2019-02-17T01:36:21.066Z,1018.47
2019-02-17T01:37:21.044Z,1018.47
2019-02-17T01:38:21.064Z,1018.49
2019-02-17T01:39:21.065Z,1018.51
2019-02-17T01:40:21.026Z,1018.49
2019-02-17T01:41:21.001Z,1018.46
2019-02-17T01:42:21.009Z,1018.47
2019-02-17T01:43:20.985Z,1018.44
2019-02-17T01:44:21.001Z,1018.43
2019-02-17T01:45:20.985Z,1018.43
2019-02-17T01:46:20.968Z,1018.42
2019-02-17T01:47:20.966Z,1018.45
2019-02-17T01:48:20.931Z,1018.39
2019-02-17T01:49:20.922Z,1018.40
2019-02-17T01:50:20.962Z,1018.34
2019-02-17T01:51:20.921Z,1018.35
2019-02-17T01:52:20.887Z,1018.35
2019-02-17T01:53:20.896Z,1018.34
2019-02-17T01:54:20.864Z,1018.33
2019-02-17T01:55:20.888Z,1018.34
2019-02-17T01:56:20.924Z,1018.32
2019-02-17T01:57:20.842Z,1018.31
2019-02-17T01:58:20.825Z,1018.30
2019-02-17T01:59:30.191Z,1018.29
2019-02-17T02:00:21.844Z,1018.28
2019-02-17T02:01:20.863Z,1018.33
2019-02-17T02:02:20.862Z,1018.33
2019-02-17T02:03:20.774Z,1018.26
2019-02-17T02:04:20.761Z,1018.29
2019-02-17T02:05:20.758Z,1018.27
2019-02-17T02:06:20.767Z,1018.30
2019-02-17T02:07:20.736Z,1018.25
2019-02-17T02:08:20.743Z,1018.27
2019-02-17T02:09:20.712Z,1018.19
2019-02-17T02:10:20.702Z,1018.25
2019-02-17T02:11:20.752Z,1018.22
2019-02-17T02:12:20.690Z,1018.19
2019-02-17T02:13:20.676Z,1018.19
2019-02-17T02:14:20.658Z,1018.13
2019-02-17T02:15:20.703Z,1018.17
2019-02-17T02:16:20.671Z,1018.16
2019-02-17T02:17:20.626Z,1018.15
2019-02-17T02:18:20.618Z,1018.13
2019-02-17T02:19:20.603Z,1018.18
2019-02-17T02:20:20.620Z,1018.15
2019-02-17T02:21:20.612Z,1018.14
2019-02-17T02:22:20.608Z,1018.13
2019-02-17T02:23:20.619Z,1018.15
2019-02-17T02:24:20.586Z,1018.13
2019-02-17T02:25:20.552Z,1018.12
2019-02-17T02:26:20.589Z,1018.14
2019-02-17T02:27:20.542Z,1018.06
2019-02-17T02:28:20.509Z,1018.06
2019-02-17T02:29:20.495Z,1018.06
2019-02-17T02:30:20.500Z,1018.08
2019-02-17T02:31:20.533Z,1018.06
2019-02-17T02:32:20.506Z,1018.04
2019-02-17T02:33:20.490Z,1018.04
2019-02-17T02:34:20.441Z,1018.04
2019-02-17T02:35:20.436Z,1018.04
2019-02-17T02:36:20.499Z,1018.03
2019-02-17T02:37:20.435Z,1018.03
2019-02-17T02:38:20.433Z,1018.00
2019-02-17T02:39:20.395Z,1017.98
2019-02-17T02:40:20.443Z,1018.00
2019-02-17T02:41:20.390Z,1017.98
2019-02-17T02:42:20.465Z,1018.00
2019-02-17T02:43:20.371Z,1017.98
2019-02-17T02:44:20.337Z,1017.94
2019-02-17T02:45:20.329Z,1017.90
2019-02-17T02:46:20.347Z,1017.92
2019-02-17T02:47:20.346Z,1017.93
2019-02-17T02:48:20.297Z,1017.94
2019-02-17T02:49:20.315Z,1017.87
2019-02-17T02:50:20.285Z,1017.92
2019-02-17T02:51:20.330Z,1017.99
2019-02-17T02:52:20.284Z,1017.97
2019-02-17T02:53:20.347Z,1017.94
2019-02-17T02:54:20.234Z,1017.92
2019-02-17T02:55:20.258Z,1017.90
2019-02-17T02:56:20.262Z,1017.93
2019-02-17T02:57:20.251Z,1017.90
2019-02-17T02:58:20.195Z,1017.88
2019-02-17T02:59:20.185Z,1017.92
2019-02-17T03:00:20.175Z,1017.88
2019-02-17T03:01:20.161Z,1017.90
2019-02-17T03:02:20.281Z,1017.84
2019-02-17T03:03:20.182Z,1017.84
2019-02-17T03:04:20.125Z,1017.77
2019-02-17T03:05:20.116Z,1017.74
2019-02-17T03:06:20.104Z,1017.72
2019-02-17T03:07:20.113Z,1017.78
2019-02-17T03:08:20.171Z,1017.79
2019-02-17T03:09:20.085Z,1017.72
2019-02-17T03:10:20.068Z,1017.77
2019-02-17T03:11:20.052Z,1017.74
2019-02-17T03:12:20.049Z,1017.75
2019-02-17T03:13:20.166Z,1017.77
2019-02-17T03:14:20.038Z,1017.75
2019-02-17T03:15:20.053Z,1017.71
2019-02-17T03:16:20.031Z,1017.77
2019-02-17T03:17:19.988Z,1017.75
2019-02-17T03:18:20.071Z,1017.76
2019-02-17T03:19:19.996Z,1017.68
2019-02-17T03:20:19.997Z,1017.73
2019-02-17T03:21:19.963Z,1017.73
2019-02-17T03:22:19.953Z,1017.70
2019-02-17T03:23:19.934Z,1017.70
2019-02-17T03:24:19.947Z,1017.67
2019-02-17T03:25:19.914Z,1017.72
2019-02-17T03:26:19.896Z,1017.68
2019-02-17T03:27:19.887Z,1017.72
2019-02-17T03:28:19.887Z,1017.71
2019-02-17T03:29:20.008Z,1017.71
2019-02-17T03:30:19.871Z,1017.69
2019-02-17T03:31:19.852Z,1017.71
2019-02-17T03:32:19.865Z,1017.75
2019-02-17T03:33:19.896Z,1017.73
2019-02-17T03:34:19.833Z,1017.72
2019-02-17T03:35:19.865Z,1017.79
2019-02-17T03:36:19.811Z,1017.74
2019-02-17T03:37:19.812Z,1017.71
2019-02-17T03:38:19.776Z,1017.70
2019-02-17T03:39:19.770Z,1017.73
2019-02-17T03:40:19.779Z,1017.72
2019-02-17T03:41:19.857Z,1017.71
2019-02-17T03:42:19.748Z,1017.72
2019-02-17T03:43:19.733Z,1017.70
2019-02-17T03:44:19.721Z,1017.72
2019-02-17T03:45:19.738Z,1017.66
2019-02-17T03:46:19.691Z,1017.68
2019-02-17T03:47:19.684Z,1017.70
2019-02-17T03:48:19.682Z,1017.66
2019-02-17T03:49:19.660Z,1017.68
2019-02-17T03:50:19.645Z,1017.66
2019-02-17T03:51:19.675Z,1017.60
2019-02-17T03:52:19.624Z,1017.61
2019-02-17T03:53:19.619Z,1017.55
2019-02-17T03:54:19.632Z,1017.57
2019-02-17T03:55:19.596Z,1017.60
2019-02-17T03:56:19.584Z,1017.62
2019-02-17T03:57:19.602Z,1017.60
2019-02-17T03:58:19.561Z,1017.62
2019-02-17T03:59:19.557Z,1017.59
2019-02-17T04:00:19.580Z,1017.59
2019-02-17T04:01:19.567Z,1017.60
2019-02-17T04:02:19.607Z,1017.59
2019-02-17T04:03:19.518Z,1017.56
2019-02-17T04:04:19.515Z,1017.57
2019-02-17T04:05:19.526Z,1017.61
2019-02-17T04:06:19.492Z,1017.56
2019-02-17T04:07:19.547Z,1017.58
2019-02-17T04:08:19.460Z,1017.54
2019-02-17T04:09:19.488Z,1017.59
2019-02-17T04:10:19.465Z,1017.57
2019-02-17T04:11:19.427Z,1017.58
2019-02-17T04:12:19.429Z,1017.63
2019-02-17T04:13:19.447Z,1017.59
2019-02-17T04:14:19.393Z,1017.56
2019-02-17T04:15:19.435Z,1017.50
2019-02-17T04:16:19.380Z,1017.54
2019-02-17T04:17:19.374Z,1017.51
2019-02-17T04:18:19.385Z,1017.48
2019-02-17T04:19:19.362Z,1017.50
2019-02-17T04:20:19.333Z,1017.47
2019-02-17T04:21:19.353Z,1017.46
2019-02-17T04:22:19.328Z,1017.51
2019-02-17T04:23:30.482Z,1017.49
2019-02-17T04:24:20.321Z,1017.41
2019-02-17T04:25:19.282Z,1017.49
2019-02-17T04:26:19.265Z,1017.50
2019-02-17T04:27:19.283Z,1017.45
2019-02-17T04:28:19.250Z,1017.44
2019-02-17T04:29:19.293Z,1017.43
2019-02-17T04:30:28.920Z,1017.40
2019-02-17T04:31:20.217Z,1017.37
2019-02-17T04:32:19.244Z,1017.37
2019-02-17T04:33:19.216Z,1017.33
2019-02-17T04:34:19.206Z,1017.38
2019-02-17T04:35:19.197Z,1017.34
2019-02-17T04:36:19.161Z,1017.36
2019-02-17T04:37:19.156Z,1017.36
2019-02-17T04:38:19.166Z,1017.37
2019-02-17T04:39:19.135Z,1017.38
2019-02-17T04:40:19.177Z,1017.37
2019-02-17T04:41:19.115Z,1017.37
2019-02-17T04:42:19.097Z,1017.34
2019-02-17T04:43:19.090Z,1017.40
2019-02-17T04:44:19.091Z,1017.36
2019-02-17T04:45:19.104Z,1017.37
2019-02-17T04:46:19.118Z,1017.39
2019-02-17T04:47:19.055Z,1017.42
2019-02-17T04:48:19.035Z,1017.41
2019-02-17T04:49:19.029Z,1017.38
2019-02-17T04:50:19.056Z,1017.38
2019-02-17T04:51:19.014Z,1017.42
2019-02-17T04:52:19.051Z,1017.40
2019-02-17T04:53:18.986Z,1017.39
2019-02-17T04:54:18.976Z,1017.36
2019-02-17T04:55:19.041Z,1017.42
2019-02-17T04:56:19.003Z,1017.40
2019-02-17T04:57:18.939Z,1017.43
2019-02-17T04:58:18.929Z,1017.40
2019-02-17T04:59:18.934Z,1017.38
2019-02-17T05:00:18.914Z,1017.38
2019-02-17T05:01:18.951Z,1017.36
2019-02-17T05:02:18.972Z,1017.35
2019-02-17T05:03:18.913Z,1017.33
2019-02-17T05:04:18.866Z,1017.36
2019-02-17T05:05:18.857Z,1017.29
2019-02-17T05:06:18.893Z,1017.33
2019-02-17T05:07:18.842Z,1017.27
2019-02-17T05:08:18.933Z,1017.28
2019-02-17T05:09:18.820Z,1017.29
2019-02-17T05:10:18.807Z,1017.26
2019-02-17T05:11:18.797Z,1017.25
2019-02-17T05:12:18.828Z,1017.28
2019-02-17T05:13:18.779Z,1017.23
2019-02-17T05:14:18.771Z,1017.25
2019-02-17T05:15:18.750Z,1017.21
2019-02-17T05:16:18.743Z,1017.23
2019-02-17T05:17:18.755Z,1017.23
2019-02-17T05:18:18.724Z,1017.23
2019-02-17T05:19:18.717Z,1017.17
2019-02-17T05:20:18.701Z,1017.22
2019-02-17T05:21:18.706Z,1017.21
2019-02-17T05:22:18.713Z,1017.21
2019-02-17T05:23:18.694Z,1017.21
2019-02-17T05:24:18.669Z,1017.21
2019-02-17T05:25:18.660Z,1017.21
2019-02-17T05:26:18.637Z,1017.21
2019-02-17T05:27:18.641Z,1017.18
2019-02-17T05:28:18.648Z,1017.20
2019-02-17T05:29:18.605Z,1017.22
2019-02-17T05:30:18.623Z,1017.18
2019-02-17T05:31:18.591Z,1017.22
2019-02-17T05:32:18.580Z,1017.23
2019-02-17T05:33:18.607Z,1017.19
2019-02-17T05:34:18.579Z,1017.17
2019-02-17T05:35:18.586Z,1017.18
2019-02-17T05:36:18.539Z,1017.20
2019-02-17T05:37:18.531Z,1017.18
2019-02-17T05:38:18.554Z,1017.17
2019-02-17T05:39:18.504Z,1017.18
2019-02-17T05:40:18.497Z,1017.17
2019-02-17T05:41:18.541Z,1017.18
2019-02-17T05:42:18.470Z,1017.17
2019-02-17T05:43:18.465Z,1017.16
2019-02-17T05:44:18.502Z,1017.14
2019-02-17T05:45:18.445Z,1017.13
2019-02-17T05:46:18.430Z,1017.16
2019-02-17T05:47:18.433Z,1017.16
2019-02-17T05:48:18.430Z,1017.20
2019-02-17T05:49:18.452Z,1017.17
2019-02-17T05:50:18.386Z,1017.16
2019-02-17T05:51:18.397Z,1017.17
2019-02-17T05:52:18.372Z,1017.14
2019-02-17T05:53:18.353Z,1017.14
2019-02-17T05:54:18.370Z,1017.12
2019-02-17T05:55:18.358Z,1017.15
2019-02-17T05:56:18.333Z,1017.13
2019-02-17T05:57:18.336Z,1017.07
2019-02-17T05:58:18.312Z,1017.11
2019-02-17T05:59:18.320Z,1017.15
2019-02-17T06:00:18.292Z,1017.09
2019-02-17T06:01:18.293Z,1017.13
2019-02-17T06:02:18.261Z,1017.12
2019-02-17T06:03:18.253Z,1017.09
2019-02-17T06:04:18.261Z,1017.11
2019-02-17T06:05:18.282Z,1017.08
2019-02-17T06:06:18.227Z,1017.11
2019-02-17T06:07:18.265Z,1017.09
2019-02-17T06:08:18.198Z,1017.15
2019-02-17T06:09:18.213Z,1017.09
2019-02-17T06:10:18.194Z,1017.14
2019-02-17T06:11:18.190Z,1017.14
2019-02-17T06:12:18.733Z,1017.14
2019-02-17T06:13:18.176Z,1017.11
2019-02-17T06:14:18.185Z,1017.15
2019-02-17T06:15:18.126Z,1017.12
2019-02-17T06:16:18.124Z,1017.12
2019-02-17T06:17:18.130Z,1017.13
2019-02-17T06:18:18.102Z,1017.12
2019-02-17T06:19:18.092Z,1017.15
2019-02-17T06:20:18.123Z,1017.10
2019-02-17T06:21:18.061Z,1017.14
2019-02-17T06:22:18.053Z,1017.14
2019-02-17T06:23:18.083Z,1017.11
2019-02-17T06:24:18.046Z,1017.13
2019-02-17T06:25:18.089Z,1017.16
2019-02-17T06:26:18.073Z,1017.15
2019-02-17T06:27:18.001Z,1017.11
2019-02-17T06:28:17.993Z,1017.16
2019-02-17T06:29:18.036Z,1017.15
2019-02-17T06:30:17.985Z,1017.14
2019-02-17T06:31:17.981Z,1017.08
2019-02-17T06:32:17.952Z,1017.11
2019-02-17T06:33:17.944Z,1017.09
2019-02-17T06:34:17.926Z,1017.08
2019-02-17T06:35:17.954Z,1017.13
2019-02-17T06:36:17.932Z,1017.09
2019-02-17T06:37:17.934Z,1017.11
2019-02-17T06:38:17.885Z,1017.13
2019-02-17T06:39:17.905Z,1017.14
2019-02-17T06:40:17.865Z,1017.14
2019-02-17T06:41:17.887Z,1017.14
2019-02-17T06:42:17.857Z,1017.16
2019-02-17T06:43:17.857Z,1017.16
2019-02-17T06:44:17.869Z,1017.13
2019-02-17T06:45:19.723Z,1017.18
2019-02-17T06:46:17.835Z,1017.18
2019-02-17T06:47:17.799Z,1017.15
2019-02-17T06:48:17.784Z,1017.15
2019-02-17T06:49:17.770Z,1017.16
2019-02-17T06:50:17.825Z,1017.18
2019-02-17T06:51:17.772Z,1017.16
2019-02-17T06:52:17.739Z,1017.13
2019-02-17T06:53:17.744Z,1017.16
2019-02-17T06:54:17.715Z,1017.15
2019-02-17T06:55:17.715Z,1017.18
2019-02-17T06:56:17.820Z,1017.19
2019-02-17T06:57:17.685Z,1017.22
2019-02-17T06:58:17.680Z,1017.24
2019-02-17T06:59:17.667Z,1017.14
2019-02-17T07:00:17.667Z,1017.15
2019-02-17T07:01:24.413Z,1017.18
2019-02-17T07:02:18.654Z,1017.16
2019-02-17T07:03:17.660Z,1017.18
2019-02-17T07:04:17.613Z,1017.10
2019-02-17T07:05:17.622Z,1017.13
2019-02-17T07:06:17.607Z,1017.10
2019-02-17T07:07:17.607Z,1017.16
2019-02-17T07:08:17.595Z,1017.11
2019-02-17T07:09:17.582Z,1017.07
2019-02-17T07:10:17.616Z,1017.10
2019-02-17T07:11:17.560Z,1017.07
2019-02-17T07:12:17.574Z,1017.10
2019-02-17T07:13:17.519Z,1017.07
2019-02-17T07:14:17.515Z,1017.08
2019-02-17T07:15:17.496Z,1017.05
2019-02-17T07:16:17.556Z,1017.09
2019-02-17T07:17:17.480Z,1017.02
2019-02-17T07:18:17.499Z,1017.04
2019-02-17T07:19:17.457Z,1017.02
2019-02-17T07:20:17.449Z,1017.02
2019-02-17T07:21:17.435Z,1017.01
2019-02-17T07:22:17.465Z,1017.06
2019-02-17T07:23:17.493Z,1017.11
2019-02-17T07:24:17.462Z,1017.06
2019-02-17T07:25:17.391Z,1017.04
2019-02-17T07:26:17.474Z,1017.08
2019-02-17T07:27:17.379Z,1017.03
2019-02-17T07:28:17.387Z,1017.05
2019-02-17T07:29:17.376Z,1017.00
2019-02-17T07:30:17.348Z,1017.03
2019-02-17T07:31:17.332Z,1017.01
2019-02-17T07:32:17.334Z,1017.05
2019-02-17T07:33:17.386Z,1017.03
2019-02-17T07:34:17.312Z,1017.04
2019-02-17T07:35:17.358Z,1017.02
2019-02-17T07:36:17.321Z,1017.03
2019-02-17T07:37:19.280Z,1017.03
2019-02-17T07:38:17.304Z,1016.96
2019-02-17T07:39:17.277Z,1016.95
2019-02-17T07:40:17.241Z,1016.92
2019-02-17T07:41:17.245Z,1016.89
2019-02-17T07:42:17.221Z,1016.93
2019-02-17T07:43:17.259Z,1016.91
2019-02-17T07:44:17.215Z,1016.90
2019-02-17T07:45:17.183Z,1016.91
2019-02-17T07:46:17.208Z,1016.87
2019-02-17T07:47:18.111Z,1016.92
2019-02-17T07:48:17.163Z,1016.88
2019-02-17T07:49:17.189Z,1016.90
2019-02-17T07:50:17.137Z,1016.90
2019-02-17T07:51:17.124Z,1016.88
2019-02-17T07:52:17.106Z,1016.88
2019-02-17T07:53:17.116Z,1016.86
2019-02-17T07:54:17.090Z,1016.92
2019-02-17T07:55:17.100Z,1016.89
2019-02-17T07:56:17.088Z,1016.92
2019-02-17T07:57:17.056Z,1016.91
2019-02-17T07:58:17.044Z,1016.92
2019-02-17T07:59:17.037Z,1016.95
2019-02-17T08:00:17.093Z,1016.90
2019-02-17T08:01:17.012Z,1016.99
2019-02-17T08:02:17.019Z,1016.91
2019-02-17T08:03:16.992Z,1016.92
2019-02-17T08:04:17.019Z,1016.89
2019-02-17T08:05:17.000Z,1016.93
2019-02-17T08:06:17.012Z,1016.94
2019-02-17T08:07:16.991Z,1016.92
2019-02-17T08:08:16.978Z,1016.95
2019-02-17T08:09:16.938Z,1016.91
2019-02-17T08:10:16.921Z,1016.91
2019-02-17T08:11:16.933Z,1016.92
2019-02-17T08:12:16.913Z,1016.92
2019-02-17T08:13:17.025Z,1016.92
2019-02-17T08:14:16.895Z,1016.96
2019-02-17T08:15:16.898Z,1016.95
2019-02-17T08:16:16.918Z,1016.93
2019-02-17T08:17:16.848Z,1016.87
2019-02-17T08:18:16.839Z,1016.87
2019-02-17T08:19:16.920Z,1016.89
2019-02-17T08:20:16.902Z,1016.88
2019-02-17T08:21:16.836Z,1016.88
2019-02-17T08:22:16.837Z,1016.86
2019-02-17T08:23:16.787Z,1016.83
2019-02-17T08:24:17.029Z,1016.85
2019-02-17T08:25:21.788Z,1016.84
2019-02-17T08:26:17.772Z,1016.85
2019-02-17T08:27:16.822Z,1016.86
2019-02-17T08:28:16.829Z,1016.84
2019-02-17T08:29:16.729Z,1016.81
2019-02-17T08:30:16.712Z,1016.83
2019-02-17T08:31:16.769Z,1016.83
2019-02-17T08:32:16.684Z,1016.82
2019-02-17T08:33:16.691Z,1016.82
2019-02-17T08:34:16.684Z,1016.79
2019-02-17T08:35:16.775Z,1016.75
2019-02-17T08:36:16.669Z,1016.79
2019-02-17T08:37:16.634Z,1016.80
2019-02-17T08:38:16.624Z,1016.76
2019-02-17T08:39:16.693Z,1016.72
2019-02-17T08:40:16.601Z,1016.74
2019-02-17T08:41:16.619Z,1016.75
2019-02-17T08:42:16.669Z,1016.71
2019-02-17T08:43:16.570Z,1016.72
2019-02-17T08:44:16.661Z,1016.69
2019-02-17T08:45:16.563Z,1016.73
2019-02-17T08:46:16.537Z,1016.70
2019-02-17T08:47:16.579Z,1016.68
2019-02-17T08:48:16.530Z,1016.69
2019-02-17T08:49:16.503Z,1016.71
2019-02-17T08:50:16.495Z,1016.72
2019-02-17T08:51:16.489Z,1016.69
2019-02-17T08:52:16.513Z,1016.69
2019-02-17T08:53:16.485Z,1016.58
2019-02-17T08:54:16.450Z,1016.61
2019-02-17T08:55:16.439Z,1016.58
2019-02-17T08:56:18.659Z,1016.58
2019-02-17T08:57:16.443Z,1016.61
2019-02-17T08:58:16.409Z,1016.62
2019-02-17T08:59:16.442Z,1016.56
2019-02-17T09:00:16.387Z,1016.51
2019-02-17T09:01:16.374Z,1016.50
2019-02-17T09:02:16.406Z,1016.49
2019-02-17T09:03:16.352Z,1016.49
2019-02-17T09:04:16.348Z,1016.45
2019-02-17T09:05:16.342Z,1016.45
2019-02-17T09:06:16.360Z,1016.44
2019-02-17T09:07:16.353Z,1016.43
2019-02-17T09:08:16.317Z,1016.45
2019-02-17T09:09:16.294Z,1016.43
2019-02-17T09:10:16.275Z,1016.44
2019-02-17T09:11:16.288Z,1016.46
2019-02-17T09:12:16.254Z,1016.44
2019-02-17T09:13:18.453Z,1016.42
2019-02-17T09:14:16.239Z,1016.40
2019-02-17T09:15:16.223Z,1016.39
2019-02-17T09:16:16.213Z,1016.40
2019-02-17T09:17:16.219Z,1016.37
2019-02-17T09:18:16.249Z,1016.40
2019-02-17T09:19:16.180Z,1016.31
2019-02-17T09:20:16.174Z,1016.33
2019-02-17T09:21:16.160Z,1016.35
2019-02-17T09:22:16.150Z,1016.31
2019-02-17T09:23:16.181Z,1016.35
2019-02-17T09:24:16.140Z,1016.33
2019-02-17T09:25:16.138Z,1016.29
2019-02-17T09:26:16.121Z,1016.32
2019-02-17T09:27:16.096Z,1016.29
2019-02-17T09:28:16.121Z,1016.30
2019-02-17T09:29:16.077Z,1016.28
2019-02-17T09:30:16.067Z,1016.26
2019-02-17T09:31:16.097Z,1016.19
2019-02-17T09:32:16.864Z,1016.21
2019-02-17T09:33:16.090Z,1016.23
2019-02-17T09:34:16.093Z,1016.20
2019-02-17T09:35:16.010Z,1016.20
2019-02-17T09:36:15.998Z,1016.08
2019-02-17T09:37:16.042Z,1016.11
2019-02-17T09:38:17.170Z,1016.12
2019-02-17T09:39:16.851Z,1016.10
2019-02-17T09:40:15.955Z,1016.12
2019-02-17T09:41:15.980Z,1016.10
2019-02-17T09:42:15.951Z,1016.11
2019-02-17T09:43:15.955Z,1016.08
2019-02-17T09:44:15.956Z,1016.10
2019-02-17T09:45:15.984Z,1016.08
2019-02-17T09:46:15.910Z,1016.05
2019-02-17T09:47:15.884Z,1016.03
2019-02-17T09:48:15.929Z,1016.05
2019-02-17T09:49:15.899Z,1016.03
2019-02-17T09:50:15.871Z,1016.02
2019-02-17T09:51:15.848Z,1016.03
2019-02-17T09:52:15.840Z,1016.03
2019-02-17T09:53:15.859Z,1016.04
2019-02-17T09:54:15.871Z,1016.01
2019-02-17T09:55:15.794Z,1015.95
2019-02-17T09:56:15.819Z,1016.01
2019-02-17T09:57:15.777Z,1015.98
2019-02-17T09:58:15.774Z,1015.95
2019-02-17T09:59:15.762Z,1016.03
2019-02-17T10:00:15.780Z,1016.03
2019-02-17T10:01:15.759Z,1016.00
2019-02-17T10:02:19.870Z,1016.03
2019-02-17T10:03:16.726Z,1015.99
2019-02-17T10:04:15.749Z,1015.99
2019-02-17T10:05:15.726Z,1016.02
2019-02-17T10:06:15.679Z,1015.95
2019-02-17T10:07:15.683Z,1016.01
2019-02-17T10:08:15.663Z,1016.05
2019-02-17T10:09:15.673Z,1016.06
2019-02-17T10:10:15.778Z,1016.07
2019-02-17T10:11:15.627Z,1016.02
2019-02-17T10:12:15.625Z,1016.00
2019-02-17T10:13:15.614Z,1015.96
2019-02-17T10:14:15.594Z,1016.06
2019-02-17T10:15:15.616Z,1016.05
2019-02-17T10:16:15.602Z,1016.03
2019-02-17T10:17:15.633Z,1016.08
2019-02-17T10:18:15.572Z,1016.00
2019-02-17T10:19:15.552Z,1016.02
2019-02-17T10:20:15.539Z,1016.03
2019-02-17T10:21:15.545Z,1016.05
2019-02-17T10:22:15.537Z,1016.04
2019-02-17T10:23:15.500Z,1016.01
2019-02-17T10:24:15.491Z,1016.03
2019-02-17T10:25:15.516Z,1016.04
2019-02-17T10:26:15.493Z,1016.08
2019-02-17T10:27:15.454Z,1016.02
2019-02-17T10:28:15.467Z,1016.05
2019-02-17T10:29:15.434Z,1016.01
2019-02-17T10:30:15.434Z,1015.97
2019-02-17T10:31:15.520Z,1016.05
2019-02-17T10:32:15.401Z,1016.04
2019-02-17T10:33:15.391Z,1016.02
2019-02-17T10:34:15.466Z,1016.04
2019-02-17T10:35:15.371Z,1016.05
2019-02-17T10:36:15.383Z,1016.03
2019-02-17T10:37:15.350Z,1016.02
2019-02-17T10:38:15.340Z,1016.00
2019-02-17T10:39:15.388Z,1016.03
2019-02-17T10:40:15.329Z,1015.93
2019-02-17T10:41:15.341Z,1015.97
2019-02-17T10:42:15.299Z,1015.99
2019-02-17T10:43:15.296Z,1015.91
2019-02-17T10:44:15.285Z,1015.92
2019-02-17T10:45:15.265Z,1015.91
2019-02-17T10:46:15.408Z,1015.91
2019-02-17T10:47:15.247Z,1015.86
2019-02-17T10:48:15.234Z,1015.86
2019-02-17T10:49:15.250Z,1015.89
2019-02-17T10:50:15.271Z,1015.86
2019-02-17T10:51:15.201Z,1015.86
2019-02-17T10:52:15.213Z,1015.80
2019-02-17T10:53:15.278Z,1015.80
2019-02-17T10:54:15.165Z,1015.79
2019-02-17T10:55:15.167Z,1015.76
2019-02-17T10:56:15.147Z,1015.79
2019-02-17T10:57:15.159Z,1015.81
2019-02-17T10:58:15.129Z,1015.79
2019-02-17T10:59:15.175Z,1015.72
2019-02-17T11:00:15.100Z,1015.69
2019-02-17T11:01:15.092Z,1015.67
2019-02-17T11:02:15.124Z,1015.71
2019-02-17T11:03:15.083Z,1015.67
2019-02-17T11:04:15.272Z,1015.62
2019-02-17T11:05:15.049Z,1015.61
2019-02-17T11:06:15.037Z,1015.66
2019-02-17T11:07:15.048Z,1015.56
2019-02-17T11:08:15.044Z,1015.63
2019-02-17T11:09:15.046Z,1015.61
2019-02-17T11:10:15.056Z,1015.57
2019-02-17T11:11:15.079Z,1015.55
2019-02-17T11:12:14.971Z,1015.57
2019-02-17T11:13:14.994Z,1015.56
2019-02-17T11:14:14.949Z,1015.54
2019-02-17T11:15:14.954Z,1015.52
2019-02-17T11:16:15.017Z,1015.52
2019-02-17T11:17:14.939Z,1015.54
2019-02-17T11:18:14.944Z,1015.55
2019-02-17T11:19:14.900Z,1015.50
2019-02-17T11:20:14.935Z,1015.48
2019-02-17T11:21:14.879Z,1015.49
2019-02-17T11:22:22.896Z,1015.50
2019-02-17T11:23:15.890Z,1015.48
2019-02-17T11:24:14.843Z,1015.46
2019-02-17T11:25:14.986Z,1015.48
2019-02-17T11:26:14.830Z,1015.42
2019-02-17T11:27:14.812Z,1015.47
2019-02-17T11:28:14.805Z,1015.41
2019-02-17T11:29:14.877Z,1015.43
2019-02-17T11:30:14.889Z,1015.45
2019-02-17T11:31:14.778Z,1015.39
2019-02-17T11:32:14.766Z,1015.42
2019-02-17T11:33:14.752Z,1015.42
2019-02-17T11:34:14.758Z,1015.42
2019-02-17T11:35:14.739Z,1015.46
2019-02-17T11:36:14.717Z,1015.43
2019-02-17T11:37:14.871Z,1015.45
2019-02-17T11:38:14.766Z,1015.42
2019-02-17T11:39:14.720Z,1015.40
2019-02-17T11:40:14.671Z,1015.42
2019-02-17T11:41:14.659Z,1015.39
2019-02-17T11:42:14.892Z,1015.40
2019-02-17T11:43:14.712Z,1015.40
2019-02-17T11:44:14.651Z,1015.41
2019-02-17T11:45:14.719Z,1015.39
2019-02-17T11:46:14.603Z,1015.40
2019-02-17T11:47:14.606Z,1015.44
2019-02-17T11:48:14.613Z,1015.36
2019-02-17T11:49:14.640Z,1015.39
2019-02-17T11:50:15.779Z,1015.39
2019-02-17T11:51:14.579Z,1015.37
2019-02-17T11:52:14.543Z,1015.40
2019-02-17T11:53:14.556Z,1015.35
2019-02-17T11:54:14.546Z,1015.36
2019-02-17T11:55:14.511Z,1015.36
2019-02-17T11:56:14.507Z,1015.36
2019-02-17T11:57:14.487Z,1015.35
2019-02-17T11:58:14.486Z,1015.24
2019-02-17T11:59:14.562Z,1015.30
2019-02-17T12:00:14.460Z,1015.26
2019-02-17T12:01:14.464Z,1015.28
2019-02-17T12:02:24.396Z,1015.25
2019-02-17T12:03:15.424Z,1015.27
2019-02-17T12:04:14.455Z,1015.20
2019-02-17T12:05:14.413Z,1015.19